Impacts METAR Board
IDs:

KPIT - Pittsburgh Intl, PA, US

Updated at: 1300 UTC 07 Jul 2020
Potential Impact None Slight Moderate High
Time 07/01Z 07/02Z 07/03Z 07/04Z 07/05Z 07/06Z 07/07Z 07/08Z 07/09Z 07/10Z 07/11Z 07/12Z 07/13Z
Temp87 84 81 77 74 73 71 70 67 68 68 72 78
Dewpt57 60 61 61 62 62 62 62 61 61 62 63 63
Altim30.01 30.02 30.03 30.04 30.04 30.04 30.03 30.02 30.02 30.04 30.04 30.03 30.03
VIS10 10 10 10 10 10 10 10 10 10 10 10 10
CIG-- -- -- -- -- -- -- -- -- -- -- -- --
CoverFEWFEWFEWFEWFEWCLRCLRCLRFEWFEWFEWFEWFEW
FltCatVFRVFRVFRVFRVFRVFRVFRVFRVFRVFRVFRVFRVFR
WX--------------------------
WDir330360000240000000130
WSpd8 6 0 0 0 3 0 0 0 0 0 0 4
WGst-- -- -- -- -- -- -- -- -- -- -- -- --
Raw hourly METARs
KPIT 070051Z 33008KT 10SM FEW250 31/14 A3001 RMK AO2 SLP155 T03060139
KPIT 070151Z 36006KT 10SM FEW250 29/16 A3002 RMK AO2 SLP161 T02890156
KPIT 070251Z 00000KT 10SM FEW250 27/16 A3003 RMK AO2 SLP164 T02720161 53011
KPIT 070351Z 00000KT 10SM FEW250 25/16 A3004 RMK AO2 SLP166 T02500161
KPIT 070451Z 00000KT 10SM FEW250 23/17 A3004 RMK AO2 SLP167 T02330167 403440200
KPIT 070551Z 24003KT 10SM CLR 23/17 A3004 RMK AO2 SLP167 T02280167 10317 20228 51002
KPIT 070651Z 00000KT 10SM CLR 22/17 A3003 RMK AO2 SLP165 T02170167
KPIT 070751Z 00000KT 10SM CLR 21/17 A3002 RMK AO2 SLP163 T02110167
KPIT 070851Z 00000KT 10SM FEW250 19/16 A3002 RMK AO2 SLP160 T01940161 56007
KPIT 070951Z 00000KT 10SM FEW250 20/16 A3004 RMK AO2 SLP166 T02000161
KPIT 071051Z 00000KT 10SM FEW250 20/17 A3004 RMK AO2 SLP168 T02000167
KPIT 071151Z 00000KT 10SM FEW250 22/17 A3003 RMK AO2 SLP164 T02220172 10233 20189 50004
KPIT 071251Z 13004KT 10SM FEW250 26/17 A3003 RMK AO2 SLP165 T02560172



Page loaded:  13:52 UTC  |   06:52 AM Pacific  |   07:52 AM Mountain  |   08:52 AM Central  |   09:52 AM Eastern

 

ADVISORIES

FORECASTS

FORECASTS

OBSERVATIONS

USER TOOLS

ABOUT US